createdAt,value
2022-10-10T00:01:34.246Z,93.31
2022-10-10T00:04:02.610Z,93.48
2022-10-10T00:06:33.070Z,93.77
2022-10-10T00:09:03.217Z,93.94
2022-10-10T00:11:31.234Z,93.80
2022-10-10T00:13:59.367Z,93.99
2022-10-10T00:16:26.986Z,94.29
2022-10-10T00:18:54.629Z,94.27
2022-10-10T00:21:22.214Z,94.16
2022-10-10T00:23:49.721Z,94.54
2022-10-10T00:26:19.510Z,95.02
2022-10-10T00:28:47.458Z,95.45
2022-10-10T00:31:15.741Z,95.54
2022-10-10T00:33:43.244Z,95.81
2022-10-10T00:36:10.952Z,95.24
2022-10-10T00:38:38.473Z,95.42
2022-10-10T00:41:06.326Z,95.41
2022-10-10T00:43:35.944Z,95.31
2022-10-10T00:46:03.955Z,95.70
2022-10-10T00:48:34.299Z,95.69
2022-10-10T00:51:04.128Z,95.92
2022-10-10T00:53:35.464Z,95.91
2022-10-10T00:56:04.354Z,95.72
2022-10-10T00:58:33.515Z,95.68
2022-10-10T01:01:02.761Z,95.58
2022-10-10T01:03:30.274Z,95.28
2022-10-10T01:05:57.826Z,95.09
2022-10-10T01:08:25.432Z,94.89
2022-10-10T01:11:06.188Z,94.38
2022-10-10T01:13:40.260Z,94.93
2022-10-10T01:16:17.272Z,94.75
2022-10-10T01:18:53.345Z,95.34
2022-10-10T01:21:28.541Z,95.48
2022-10-10T01:24:31.398Z,95.09
2022-10-10T01:27:12.402Z,95.49
2022-10-10T01:29:44.625Z,95.16
2022-10-10T01:32:17.146Z,95.08
2022-10-10T01:34:56.643Z,95.12
2022-10-10T01:37:34.752Z,95.13
2022-10-10T01:40:10.325Z,94.66
2022-10-10T01:42:43.779Z,95.21
2022-10-10T01:45:12.715Z,94.72
2022-10-10T01:47:40.277Z,94.96
2022-10-10T01:50:13.529Z,94.86
2022-10-10T01:52:53.720Z,94.80
2022-10-10T01:55:35.463Z,95.08
2022-10-10T01:58:18.743Z,95.38
2022-10-10T02:00:52.676Z,94.92
2022-10-10T02:03:25.171Z,94.51
2022-10-10T02:05:57.248Z,94.61
2022-10-10T02:08:29.681Z,95.13
2022-10-10T02:11:01.264Z,95.01
2022-10-10T02:13:32.216Z,94.61
2022-10-10T02:16:03.913Z,94.58
2022-10-10T02:18:36.198Z,94.25
2022-10-10T02:21:07.311Z,94.36
2022-10-10T02:23:35.562Z,94.43
2022-10-10T02:26:05.232Z,94.47
2022-10-10T02:28:39.025Z,94.16
2022-10-10T02:31:11.960Z,94.13
2022-10-10T02:33:45.585Z,93.50
2022-10-10T02:36:15.336Z,94.07
2022-10-10T02:38:44.265Z,94.37
2022-10-10T02:41:15.468Z,94.26
2022-10-10T02:43:43.431Z,94.77
2022-10-10T02:46:14.550Z,94.54
2022-10-10T02:48:42.371Z,94.93
2022-10-10T02:51:10.588Z,95.37
2022-10-10T02:53:39.661Z,95.76
2022-10-10T02:56:07.840Z,95.80
2022-10-10T02:58:35.555Z,96.32
2022-10-10T03:01:03.216Z,96.19
2022-10-10T03:03:32.085Z,95.91
2022-10-10T03:05:59.621Z,96.72
2022-10-10T03:08:27.138Z,96.63
2022-10-10T03:10:56.703Z,96.72
2022-10-10T03:13:25.173Z,96.68
2022-10-10T03:15:52.801Z,96.44
2022-10-10T03:18:21.104Z,96.79
2022-10-10T03:20:52.815Z,96.56
2022-10-10T03:23:20.736Z,96.85
2022-10-10T03:25:48.347Z,96.75
2022-10-10T03:28:16.125Z,96.69
2022-10-10T03:30:44.075Z,96.88
2022-10-10T03:33:11.631Z,97.28
2022-10-10T03:35:39.152Z,97.12
2022-10-10T03:38:08.393Z,97.33
2022-10-10T03:40:41.761Z,97.75
2022-10-10T03:43:09.371Z,97.83
2022-10-10T03:45:37.185Z,97.80
2022-10-10T03:48:05.885Z,98.01
2022-10-10T03:50:33.400Z,98.04
2022-10-10T03:53:00.924Z,98.54
2022-10-10T03:55:29.861Z,98.52
2022-10-10T03:57:57.384Z,97.76
2022-10-10T04:00:25.104Z,97.68
2022-10-10T04:02:53.565Z,97.43
2022-10-10T04:05:21.367Z,97.50
2022-10-10T04:07:48.920Z,97.91
2022-10-10T04:10:16.806Z,97.97
2022-10-10T04:12:45.687Z,98.48
2022-10-10T04:15:13.198Z,97.66
2022-10-10T04:17:40.701Z,96.90
2022-10-10T04:20:08.964Z,97.17
2022-10-10T04:22:36.581Z,97.20
2022-10-10T04:25:04.288Z,97.26
2022-10-10T04:27:31.881Z,96.95
2022-10-10T04:30:00.721Z,97.50
2022-10-10T04:32:28.205Z,97.46
2022-10-10T04:34:55.707Z,97.40
2022-10-10T04:37:23.240Z,97.52
2022-10-10T04:39:50.777Z,96.95
2022-10-10T04:42:18.421Z,97.15
2022-10-10T04:44:45.959Z,96.98
2022-10-10T04:47:14.797Z,97.36
2022-10-10T04:49:42.353Z,97.59
2022-10-10T04:52:10.146Z,97.94
2022-10-10T04:54:37.725Z,98.23
2022-10-10T04:57:05.521Z,98.10
2022-10-10T04:59:33.805Z,98.29
2022-10-10T05:02:02.080Z,98.42
2022-10-10T05:04:31.159Z,98.26
2022-10-10T05:06:58.776Z,98.30
2022-10-10T05:09:26.630Z,98.25
2022-10-10T05:11:54.143Z,97.87
2022-10-10T05:14:21.669Z,98.15
2022-10-10T05:16:49.204Z,97.93
2022-10-10T05:19:16.715Z,97.95
2022-10-10T05:21:45.604Z,97.76
2022-10-10T05:24:13.136Z,97.70
2022-10-10T05:26:43.265Z,97.49
2022-10-10T05:29:11.032Z,96.69
2022-10-10T05:31:38.676Z,96.71
2022-10-10T05:34:06.232Z,97.17
2022-10-10T05:36:33.800Z,96.93
2022-10-10T05:39:03.292Z,97.56
2022-10-10T05:41:30.817Z,98.03
2022-10-10T05:43:58.403Z,98.57
2022-10-10T05:46:27.389Z,97.96
2022-10-10T05:48:55.570Z,97.76
2022-10-10T05:51:23.132Z,98.62
2022-10-10T05:53:50.629Z,97.20
2022-10-10T05:56:19.709Z,97.99
2022-10-10T05:58:47.309Z,98.52
2022-10-10T06:01:14.822Z,97.32
2022-10-10T06:03:42.409Z,95.56
2022-10-10T06:06:09.970Z,95.68
2022-10-10T06:08:37.493Z,95.40
2022-10-10T06:11:07.854Z,95.21
2022-10-10T06:13:37.751Z,95.65
2022-10-10T06:16:05.438Z,95.99
2022-10-10T06:18:32.980Z,96.38
2022-10-10T06:21:03.141Z,96.48
2022-10-10T06:23:30.863Z,96.96
2022-10-10T06:25:58.517Z,97.00
2022-10-10T06:28:26.317Z,96.83
2022-10-10T06:30:55.188Z,96.60
2022-10-10T06:33:22.776Z,96.75
2022-10-10T06:35:50.421Z,96.81
2022-10-10T06:38:18.004Z,97.06
2022-10-10T06:40:46.405Z,97.04
2022-10-10T06:43:16.097Z,96.52
2022-10-10T06:45:45.016Z,96.36
2022-10-10T06:48:15.671Z,96.35
2022-10-10T06:50:43.432Z,96.36
2022-10-10T06:53:11.028Z,95.54
2022-10-10T06:55:38.673Z,95.70
2022-10-10T06:58:07.486Z,95.33
2022-10-10T07:00:35.118Z,95.91
2022-10-10T07:03:02.651Z,95.55
2022-10-10T07:05:31.527Z,94.65
2022-10-10T07:07:59.057Z,94.40
2022-10-10T07:10:26.617Z,93.52
2022-10-10T07:12:54.422Z,93.79
2022-10-10T07:15:22.079Z,92.79
2022-10-10T07:17:54.270Z,92.49
2022-10-10T07:20:21.973Z,92.95
2022-10-10T07:22:51.272Z,93.63
2022-10-10T07:25:18.973Z,93.95
2022-10-10T07:27:46.524Z,93.34
2022-10-10T07:30:14.470Z,93.93
2022-10-10T07:32:44.152Z,94.56
2022-10-10T07:35:12.305Z,94.84
2022-10-10T07:37:40.076Z,94.42
2022-10-10T07:40:10.589Z,94.56
2022-10-10T07:42:38.241Z,93.80
2022-10-10T07:45:07.182Z,94.46
2022-10-10T07:47:34.817Z,94.79
2022-10-10T07:50:02.526Z,95.01
2022-10-10T07:52:30.063Z,94.99
2022-10-10T07:54:57.612Z,95.65
2022-10-10T07:57:26.651Z,96.13
2022-10-10T07:59:54.242Z,95.76
2022-10-10T08:02:21.792Z,95.46
2022-10-10T08:04:49.968Z,95.85
2022-10-10T08:07:19.469Z,96.59
2022-10-10T08:09:47.080Z,96.38
2022-10-10T08:12:14.685Z,95.45
2022-10-10T08:14:43.690Z,95.42
2022-10-10T08:17:11.591Z,96.04
2022-10-10T08:19:39.446Z,96.10
2022-10-10T08:22:07.285Z,96.43
2022-10-10T08:24:34.940Z,96.69
2022-10-10T08:27:02.484Z,95.59
2022-10-10T08:29:30.072Z,96.28
2022-10-10T08:31:58.982Z,96.19
2022-10-10T08:34:26.527Z,95.40
2022-10-10T08:36:54.081Z,96.43
2022-10-10T08:39:21.788Z,96.18
2022-10-10T08:41:52.199Z,95.95
2022-10-10T08:44:25.290Z,94.48
2022-10-10T08:46:56.560Z,93.71
2022-10-10T08:49:30.963Z,91.87
2022-10-10T08:52:04.586Z,91.69
2022-10-10T08:54:35.451Z,90.69
2022-10-10T08:57:06.838Z,89.27
2022-10-10T08:59:36.439Z,88.70
2022-10-10T09:02:53.262Z,86.01
2022-10-10T09:05:34.753Z,83.53
2022-10-10T09:08:17.813Z,83.31
2022-10-10T09:10:56.227Z,81.67
2022-10-10T09:13:32.711Z,82.42
2022-10-10T09:16:02.271Z,80.84
2022-10-10T09:18:42.285Z,79.09
2022-10-10T09:21:17.184Z,78.39
2022-10-10T09:23:51.564Z,76.54
2022-10-10T09:26:24.163Z,74.56
2022-10-10T09:28:57.966Z,73.50
2022-10-10T09:31:37.090Z,73.92
2022-10-10T09:34:15.099Z,72.95
2022-10-10T09:36:48.421Z,71.94
2022-10-10T09:39:23.692Z,70.90
2022-10-10T09:41:58.995Z,71.41
2022-10-10T09:44:26.513Z,69.91
2022-10-10T09:46:55.114Z,68.95
2022-10-10T09:49:23.115Z,69.82
2022-10-10T09:51:52.169Z,68.95
2022-10-10T09:54:22.673Z,69.26
2022-10-10T09:56:54.686Z,68.03
2022-10-10T09:59:40.531Z,66.83
2022-10-10T10:02:15.026Z,65.38
2022-10-10T10:04:42.648Z,64.25
2022-10-10T10:07:22.650Z,64.40
2022-10-10T10:09:51.793Z,63.83
2022-10-10T10:12:23.016Z,64.79
2022-10-10T10:14:51.795Z,64.53
2022-10-10T10:17:24.359Z,64.52
2022-10-10T10:19:52.192Z,61.87
2022-10-10T10:22:33.064Z,62.01
2022-10-10T10:25:21.182Z,61.15
2022-10-10T10:27:50.103Z,60.31
2022-10-10T10:30:26.296Z,60.93
2022-10-10T10:33:02.916Z,59.72
2022-10-10T10:35:37.156Z,58.74
2022-10-10T10:38:18.815Z,57.81
2022-10-10T10:40:54.948Z,57.28
2022-10-10T10:43:36.757Z,57.81
2022-10-10T10:46:11.694Z,57.57
2022-10-10T10:48:46.179Z,57.60
2022-10-10T10:51:29.526Z,56.51
2022-10-10T10:54:08.440Z,54.50
2022-10-10T10:56:42.036Z,54.79
2022-10-10T11:00:16.654Z,54.46
2022-10-10T11:02:54.709Z,53.05
2022-10-10T11:05:41.640Z,52.32
2022-10-10T11:08:37.493Z,52.62
2022-10-10T11:11:21.269Z,53.34
2022-10-10T11:14:00.004Z,54.13
2022-10-10T11:16:50.584Z,55.05
2022-10-10T11:19:28.778Z,54.94
2022-10-10T11:22:03.052Z,54.75
2022-10-10T11:24:40.184Z,54.47
2022-10-10T11:27:14.236Z,54.21
2022-10-10T11:29:53.973Z,53.91
2022-10-10T11:32:28.252Z,54.20
2022-10-10T11:35:07.237Z,51.21
2022-10-10T11:37:40.976Z,50.35
2022-10-10T11:40:26.651Z,48.73
2022-10-10T11:42:58.855Z,50.01
2022-10-10T11:45:29.200Z,47.70
2022-10-10T11:48:05.917Z,48.26
2022-10-10T11:50:38.328Z,47.53
2022-10-10T11:53:13.104Z,47.95
2022-10-10T11:55:46.321Z,48.63
2022-10-10T11:58:26.092Z,47.25
2022-10-10T12:00:57.544Z,46.89
2022-10-10T12:03:27.200Z,47.40
2022-10-10T12:06:01.110Z,46.27
2022-10-10T12:08:35.862Z,44.65
2022-10-10T12:11:10.654Z,44.11
2022-10-10T12:13:41.231Z,42.78
2022-10-10T12:16:11.248Z,41.59
2022-10-10T12:18:45.810Z,41.28
2022-10-10T12:21:15.876Z,40.55
2022-10-10T12:23:47.301Z,39.28
2022-10-10T12:26:17.586Z,40.87
2022-10-10T12:29:05.937Z,39.36
2022-10-10T12:31:36.029Z,38.81
2022-10-10T12:34:14.202Z,38.93
2022-10-10T12:36:58.049Z,37.54
2022-10-10T12:40:01.546Z,37.47
2022-10-10T12:42:31.344Z,40.44
2022-10-10T12:44:58.857Z,39.21
2022-10-10T12:48:03.264Z,37.50
2022-10-10T12:50:27.828Z,36.11
2022-10-10T12:52:58.478Z,35.37
2022-10-10T12:55:29.999Z,35.39
2022-10-10T12:58:00.803Z,36.44
2022-10-10T13:00:37.153Z,37.72
2022-10-10T13:03:13.441Z,36.78
2022-10-10T13:05:42.659Z,37.03
2022-10-10T13:08:16.066Z,35.29
2022-10-10T13:10:44.119Z,35.61
2022-10-10T13:13:18.872Z,34.66
2022-10-10T13:15:53.250Z,33.67
2022-10-10T13:18:33.939Z,34.29
2022-10-10T13:21:04.137Z,34.73
2022-10-10T13:23:32.892Z,32.57
2022-10-10T13:26:00.613Z,33.46
2022-10-10T13:28:29.049Z,33.39
2022-10-10T13:30:56.854Z,32.98
2022-10-10T13:33:30.210Z,33.41
2022-10-10T13:36:07.700Z,35.47
2022-10-10T13:38:36.584Z,35.47
2022-10-10T13:41:05.535Z,34.07
2022-10-10T13:43:34.296Z,34.36
2022-10-10T13:46:03.463Z,33.81
2022-10-10T13:48:40.883Z,32.82
2022-10-10T13:51:12.137Z,33.27
2022-10-10T13:53:50.528Z,32.82
2022-10-10T13:56:26.466Z,34.05
2022-10-10T13:58:58.053Z,33.85
2022-10-10T14:01:32.930Z,32.34
2022-10-10T14:04:08.672Z,31.09
2022-10-10T14:06:37.844Z,31.21
2022-10-10T14:09:10.297Z,31.11
2022-10-10T14:11:38.371Z,29.97
2022-10-10T14:14:09.405Z,29.36
2022-10-10T14:16:37.030Z,29.90
2022-10-10T14:19:04.603Z,29.84
2022-10-10T14:21:32.284Z,29.57
2022-10-10T14:24:01.319Z,31.40
2022-10-10T14:26:29.024Z,31.80
2022-10-10T14:28:56.655Z,31.74
2022-10-10T14:31:26.270Z,31.84
2022-10-10T14:33:54.026Z,31.09
2022-10-10T14:36:22.125Z,32.22
2022-10-10T14:38:49.749Z,30.11
2022-10-10T14:41:18.705Z,30.34
2022-10-10T14:43:46.453Z,29.72
2022-10-10T14:46:19.253Z,30.47
2022-10-10T14:48:47.338Z,31.23
2022-10-10T14:51:33.932Z,32.65
2022-10-10T14:54:11.989Z,33.43
2022-10-10T14:57:06.825Z,32.96
2022-10-10T14:59:47.331Z,33.79
2022-10-10T15:02:16.489Z,35.12
2022-10-10T15:04:44.072Z,34.47
2022-10-10T15:07:14.673Z,35.65
2022-10-10T15:09:56.595Z,36.26
2022-10-10T15:12:32.175Z,36.58
2022-10-10T15:14:59.723Z,36.70
2022-10-10T15:17:29.556Z,37.74
2022-10-10T15:19:57.201Z,39.89
2022-10-10T15:22:24.870Z,39.60
2022-10-10T15:24:52.571Z,39.47
2022-10-10T15:27:20.350Z,39.42
2022-10-10T15:29:49.301Z,40.15
2022-10-10T15:32:16.870Z,40.59
2022-10-10T15:34:44.921Z,41.15
2022-10-10T15:37:12.504Z,42.11
2022-10-10T15:39:41.138Z,42.68
2022-10-10T15:42:14.996Z,43.99
2022-10-10T15:44:46.554Z,46.38
2022-10-10T15:47:16.992Z,46.36
2022-10-10T15:49:44.700Z,47.37
2022-10-10T15:52:12.291Z,48.55
2022-10-10T15:54:40.061Z,49.18
2022-10-10T15:57:07.789Z,50.45
2022-10-10T15:59:37.938Z,51.65
2022-10-10T16:02:08.156Z,52.81
2022-10-10T16:04:37.088Z,54.10
2022-10-10T16:07:25.486Z,55.56
2022-10-10T16:09:53.516Z,56.32
2022-10-10T16:12:21.097Z,57.71
2022-10-10T16:14:48.842Z,58.89
2022-10-10T16:17:20.797Z,60.42
2022-10-10T16:19:52.366Z,61.70
2022-10-10T16:22:20.292Z,62.80
2022-10-10T16:25:10.164Z,64.21
2022-10-10T16:27:36.565Z,65.90
2022-10-10T16:30:04.549Z,66.13
2022-10-10T16:32:34.195Z,66.63
2022-10-10T16:35:06.387Z,67.74
2022-10-10T16:37:34.223Z,68.64
2022-10-10T16:40:01.769Z,69.46
2022-10-10T16:42:29.357Z,69.91
2022-10-10T16:44:56.970Z,71.02
2022-10-10T16:47:24.537Z,71.42
2022-10-10T16:49:52.061Z,72.42
2022-10-10T16:52:20.937Z,73.06
2022-10-10T16:54:51.962Z,73.98
2022-10-10T16:57:20.146Z,74.31
2022-10-10T16:59:47.839Z,74.73
2022-10-10T17:02:15.429Z,75.29
2022-10-10T17:04:43.007Z,75.51
2022-10-10T17:07:10.547Z,75.91
2022-10-10T17:09:39.488Z,76.15
2022-10-10T17:12:07.184Z,76.55
2022-10-10T17:14:34.963Z,76.84
2022-10-10T17:17:17.716Z,77.95
2022-10-10T17:19:45.283Z,78.44
2022-10-10T17:22:12.844Z,79.16
2022-10-10T17:24:41.778Z,79.57
2022-10-10T17:27:09.531Z,79.95
2022-10-10T17:29:37.161Z,80.13
2022-10-10T17:32:06.753Z,80.18
2022-10-10T17:34:35.039Z,80.09
2022-10-10T17:37:02.729Z,80.50
2022-10-10T17:39:30.281Z,80.84
2022-10-10T17:41:59.919Z,80.99
2022-10-10T17:44:27.479Z,81.24
2022-10-10T17:46:55.077Z,81.96
2022-10-10T17:49:22.670Z,81.78
2022-10-10T17:51:50.248Z,82.54
2022-10-10T17:54:18.235Z,83.60
2022-10-10T17:56:45.813Z,84.69
2022-10-10T17:59:14.712Z,85.30
2022-10-10T18:01:42.557Z,84.84
2022-10-10T18:04:10.358Z,84.87
2022-10-10T18:06:38.685Z,85.48
2022-10-10T18:09:07.241Z,85.76
2022-10-10T18:11:35.074Z,86.35
2022-10-10T18:14:02.582Z,86.22
2022-10-10T18:16:34.107Z,85.88
2022-10-10T18:19:03.291Z,86.04
2022-10-10T18:21:30.852Z,86.48
2022-10-10T18:23:58.624Z,86.50
2022-10-10T18:26:29.348Z,86.30
2022-10-10T18:28:58.061Z,87.09
2022-10-10T18:31:27.881Z,86.88
2022-10-10T18:33:57.180Z,87.05
2022-10-10T18:36:27.167Z,86.92
2022-10-10T18:38:55.303Z,87.87
2022-10-10T18:41:25.076Z,87.75
2022-10-10T18:43:53.014Z,88.18
2022-10-10T18:46:22.441Z,88.63
2022-10-10T18:48:54.083Z,88.70
2022-10-10T18:51:25.868Z,88.84
2022-10-10T18:53:58.423Z,88.82
2022-10-10T18:56:25.981Z,89.19
2022-10-10T18:58:56.163Z,89.28
2022-10-10T19:01:25.424Z,89.44
2022-10-10T19:03:54.640Z,89.47
2022-10-10T19:06:24.487Z,90.48
2022-10-10T19:08:52.561Z,90.53
2022-10-10T19:11:21.897Z,90.69
2022-10-10T19:13:49.967Z,91.07
2022-10-10T19:16:18.513Z,91.43
2022-10-10T19:18:46.447Z,91.65
2022-10-10T19:21:15.000Z,92.17
2022-10-10T19:23:44.287Z,92.27
2022-10-10T19:26:14.514Z,92.60
2022-10-10T19:28:42.617Z,92.33
2022-10-10T19:31:13.491Z,92.42
2022-10-10T19:33:42.225Z,92.58
2022-10-10T19:36:12.083Z,92.74
2022-10-10T19:38:42.002Z,92.69
2022-10-10T19:41:14.000Z,92.77
2022-10-10T19:43:41.694Z,92.77
2022-10-10T19:46:12.340Z,92.65
2022-10-10T19:48:40.365Z,92.82
2022-10-10T19:51:10.255Z,93.14
2022-10-10T19:53:38.085Z,93.03
2022-10-10T19:56:07.981Z,93.29
2022-10-10T19:58:37.600Z,92.67
2022-10-10T20:01:07.530Z,92.60
2022-10-10T20:03:35.141Z,92.60
2022-10-10T20:06:03.786Z,91.89
2022-10-10T20:08:31.672Z,91.39
2022-10-10T20:10:59.224Z,91.70
2022-10-10T20:13:27.288Z,89.39
2022-10-10T20:16:00.924Z,87.78
2022-10-10T20:18:28.853Z,86.95
2022-10-10T20:20:56.604Z,85.63
2022-10-10T20:23:26.019Z,84.71
2022-10-10T20:25:53.996Z,84.12
2022-10-10T20:28:22.546Z,84.03
2022-10-10T20:30:52.177Z,83.69
2022-10-10T20:33:22.311Z,82.97
2022-10-10T20:35:55.145Z,82.13
2022-10-10T20:38:25.676Z,82.12
2022-10-10T20:40:53.261Z,81.22
2022-10-10T20:43:20.773Z,81.43
2022-10-10T20:45:48.362Z,80.96
2022-10-10T20:48:15.892Z,81.52
2022-10-10T20:50:44.884Z,80.86
2022-10-10T20:53:13.335Z,80.83
2022-10-10T20:55:42.229Z,81.24
2022-10-10T20:58:09.977Z,80.15
2022-10-10T21:00:40.835Z,80.41
2022-10-10T21:03:08.536Z,80.90
2022-10-10T21:05:36.125Z,80.60
2022-10-10T21:08:05.236Z,80.52
2022-10-10T21:10:33.103Z,80.37
2022-10-10T21:13:00.744Z,80.26
2022-10-10T21:15:28.283Z,79.99
2022-10-10T21:17:55.953Z,79.82
2022-10-10T21:20:23.552Z,79.49
2022-10-10T21:22:51.109Z,79.37
2022-10-10T21:25:20.001Z,79.48
2022-10-10T21:27:49.796Z,79.49
2022-10-10T21:30:17.472Z,79.51
2022-10-10T21:32:45.121Z,79.58
2022-10-10T21:35:12.780Z,79.46
2022-10-10T21:37:41.304Z,79.66
2022-10-10T21:40:10.041Z,79.38
2022-10-10T21:42:39.061Z,79.63
2022-10-10T21:45:08.041Z,79.37
2022-10-10T21:47:35.660Z,79.59
2022-10-10T21:50:03.163Z,80.59
2022-10-10T21:52:30.683Z,81.60
2022-10-10T21:54:58.191Z,82.63
2022-10-10T21:57:25.763Z,83.22
2022-10-10T21:59:54.635Z,83.57
2022-10-10T22:02:22.203Z,82.95
2022-10-10T22:04:51.361Z,83.13
2022-10-10T22:07:19.245Z,82.94
2022-10-10T22:09:46.790Z,82.72
2022-10-10T22:12:15.792Z,82.26
2022-10-10T22:14:43.447Z,82.15
2022-10-10T22:17:12.291Z,82.70
2022-10-10T22:19:39.876Z,83.06
2022-10-10T22:22:07.390Z,82.59
2022-10-10T22:24:34.891Z,83.29
2022-10-10T22:27:02.443Z,82.67
2022-10-10T22:29:29.979Z,83.01
2022-10-10T22:31:57.671Z,82.83
2022-10-10T22:34:26.582Z,82.48
2022-10-10T22:36:55.423Z,83.16
2022-10-10T22:39:23.013Z,83.21
2022-10-10T22:41:50.665Z,83.21
2022-10-10T22:44:18.392Z,82.95
2022-10-10T22:46:45.923Z,83.28
2022-10-10T22:49:13.472Z,82.70
2022-10-10T22:51:42.323Z,82.44
2022-10-10T22:54:11.677Z,82.60
2022-10-10T22:56:39.200Z,82.45
2022-10-10T22:59:06.715Z,82.72
2022-10-10T23:01:34.260Z,82.87
2022-10-10T23:04:09.077Z,83.20
2022-10-10T23:06:36.948Z,83.41
2022-10-10T23:09:06.017Z,83.33
2022-10-10T23:11:33.875Z,83.15
2022-10-10T23:14:01.697Z,82.47
2022-10-10T23:16:31.693Z,82.82
2022-10-10T23:19:00.444Z,83.52
2022-10-10T23:21:28.095Z,83.42
2022-10-10T23:23:55.789Z,83.66
2022-10-10T23:26:24.640Z,83.48
2022-10-10T23:28:52.283Z,83.41
2022-10-10T23:31:19.959Z,83.34
2022-10-10T23:33:47.511Z,83.33
2022-10-10T23:36:16.090Z,83.72
2022-10-10T23:38:44.455Z,83.71
2022-10-10T23:41:13.033Z,83.97
2022-10-10T23:43:41.913Z,84.11
2022-10-10T23:46:09.603Z,84.02
2022-10-10T23:48:37.740Z,84.54
2022-10-10T23:51:05.490Z,84.68
2022-10-10T23:53:33.217Z,84.59
2022-10-10T23:56:00.871Z,84.86
2022-10-10T23:58:28.677Z,85.28
